createdAt,value
2018-07-20T00:02:10.716Z,18.81
2018-07-20T00:04:39.758Z,18.75
2018-07-20T00:07:08.791Z,18.73
2018-07-20T00:09:37.888Z,18.73
2018-07-20T00:12:07.046Z,18.70
2018-07-20T00:14:36.169Z,18.68
2018-07-20T00:17:05.177Z,18.63
2018-07-20T00:19:33.901Z,18.62
2018-07-20T00:22:02.716Z,18.64
2018-07-20T00:24:31.687Z,18.62
2018-07-20T00:27:01.242Z,18.53
2018-07-20T00:29:29.993Z,18.47
2018-07-20T00:31:58.732Z,18.42
2018-07-20T00:34:27.783Z,18.41
2018-07-20T00:36:57.322Z,18.35
2018-07-20T00:39:26.669Z,18.32
2018-07-20T00:41:55.857Z,18.27
2018-07-20T00:44:24.715Z,18.28
2018-07-20T00:46:54.177Z,18.23
2018-07-20T00:49:22.906Z,18.20
2018-07-20T00:51:51.651Z,18.19
2018-07-20T00:54:20.791Z,18.14
2018-07-20T00:56:49.535Z,18.06
2018-07-20T00:59:18.514Z,18.06
2018-07-20T01:01:47.934Z,18.05
2018-07-20T01:04:17.110Z,18.00
2018-07-20T01:06:47.048Z,17.95
2018-07-20T01:09:15.766Z,17.89
2018-07-20T01:11:44.789Z,17.85
2018-07-20T01:14:13.522Z,17.84
2018-07-20T01:16:54.973Z,17.84
2018-07-20T01:19:23.711Z,17.78
2018-07-20T01:21:53.103Z,17.74
2018-07-20T01:24:21.851Z,17.70
2018-07-20T01:26:50.636Z,17.67
2018-07-20T01:29:19.775Z,17.61
2018-07-20T01:31:48.862Z,17.61
2018-07-20T01:34:17.632Z,17.58
2018-07-20T01:36:46.367Z,17.54
2018-07-20T01:39:15.368Z,17.53
2018-07-20T01:41:44.406Z,17.51
2018-07-20T01:44:13.522Z,17.45
2018-07-20T01:46:42.249Z,17.43
2018-07-20T01:49:11.339Z,17.37
2018-07-20T01:51:40.393Z,17.36
2018-07-20T01:54:09.456Z,17.31
2018-07-20T01:56:38.622Z,17.23
2018-07-20T01:59:07.586Z,17.23
2018-07-20T02:01:36.839Z,17.26
2018-07-20T02:04:06.070Z,17.30
2018-07-20T02:06:35.033Z,17.30
2018-07-20T02:09:04.783Z,17.24
2018-07-20T02:11:33.857Z,17.23
2018-07-20T02:14:03.086Z,17.25
2018-07-20T02:16:31.766Z,17.25
2018-07-20T02:19:00.567Z,17.25
2018-07-20T02:21:29.739Z,17.20
2018-07-20T02:23:58.681Z,17.15
2018-07-20T02:26:28.067Z,17.11
2018-07-20T02:28:57.318Z,17.09
2018-07-20T02:31:26.453Z,17.10
2018-07-20T02:33:55.185Z,17.06
2018-07-20T02:36:23.975Z,17.04
2018-07-20T02:38:53.364Z,17.04
2018-07-20T02:41:22.104Z,17.03
2018-07-20T02:43:50.880Z,17.00
2018-07-20T02:46:20.182Z,16.97
2018-07-20T02:48:48.939Z,16.98
2018-07-20T02:51:17.976Z,16.96
2018-07-20T02:53:46.786Z,16.90
2018-07-20T02:56:15.885Z,16.89
2018-07-20T02:58:44.914Z,16.89
2018-07-20T03:01:15.547Z,16.91
2018-07-20T03:03:44.631Z,16.90
2018-07-20T03:06:13.895Z,16.83
2018-07-20T03:08:43.023Z,16.76
2018-07-20T03:11:12.028Z,16.71
2018-07-20T03:13:40.765Z,16.70
2018-07-20T03:16:09.847Z,16.65
2018-07-20T03:18:39.147Z,16.58
2018-07-20T03:21:08.331Z,16.55
2018-07-20T03:23:37.585Z,16.51
2018-07-20T03:26:07.390Z,16.46
2018-07-20T03:28:36.663Z,16.41
2018-07-20T03:31:05.539Z,16.42
2018-07-20T03:33:34.648Z,16.39
2018-07-20T03:36:03.403Z,16.35
2018-07-20T03:38:32.466Z,16.36
2018-07-20T03:41:01.538Z,16.34
2018-07-20T03:43:30.885Z,16.33
2018-07-20T03:45:59.970Z,16.30
2018-07-20T03:48:28.726Z,16.27
2018-07-20T03:50:57.458Z,16.24
2018-07-20T03:53:26.198Z,16.23
2018-07-20T03:55:55.214Z,16.23
2018-07-20T03:58:23.942Z,16.25
2018-07-20T04:00:52.755Z,16.26
2018-07-20T04:03:21.909Z,16.18
2018-07-20T04:05:50.924Z,16.15
2018-07-20T04:08:19.995Z,16.11
2018-07-20T04:10:48.743Z,16.14
2018-07-20T04:13:18.082Z,16.14
2018-07-20T04:15:47.595Z,16.14
2018-07-20T04:18:16.307Z,16.12
2018-07-20T04:20:45.648Z,16.09
2018-07-20T04:23:14.394Z,16.15
2018-07-20T04:25:43.137Z,16.14
2018-07-20T04:28:12.618Z,16.16
2018-07-20T04:30:41.710Z,16.19
2018-07-20T04:33:10.467Z,16.22
2018-07-20T04:35:39.205Z,16.25
2018-07-20T04:38:08.330Z,16.27
2018-07-20T04:40:37.370Z,16.29
2018-07-20T04:43:06.475Z,16.30
2018-07-20T04:45:35.266Z,16.34
2018-07-20T04:48:03.987Z,16.36
2018-07-20T04:50:32.780Z,16.38
2018-07-20T04:53:01.562Z,16.38
2018-07-20T04:55:30.275Z,16.45
2018-07-20T04:57:59.023Z,16.50
2018-07-20T05:00:28.241Z,16.55
2018-07-20T05:02:59.860Z,16.58
2018-07-20T05:05:29.449Z,16.63
2018-07-20T05:07:58.164Z,16.61
2018-07-20T05:10:27.576Z,16.62
2018-07-20T05:12:56.927Z,16.64
2018-07-20T05:15:26.644Z,16.66
2018-07-20T05:17:56.499Z,16.70
2018-07-20T05:20:25.582Z,16.75
2018-07-20T05:22:56.430Z,16.80
2018-07-20T05:25:25.764Z,16.83
2018-07-20T05:27:54.762Z,16.85
2018-07-20T05:30:23.895Z,16.88
2018-07-20T05:32:53.185Z,16.94
2018-07-20T05:35:22.407Z,16.99
2018-07-20T05:37:51.495Z,17.05
2018-07-20T05:40:20.574Z,17.09
2018-07-20T05:42:50.416Z,17.13
2018-07-20T05:45:19.588Z,17.19
2018-07-20T05:47:48.425Z,17.24
2018-07-20T05:50:18.401Z,17.32
2018-07-20T05:52:49.315Z,17.37
2018-07-20T05:55:18.407Z,17.44
2018-07-20T05:57:47.203Z,17.51
2018-07-20T06:00:16.007Z,17.60
2018-07-20T06:02:45.117Z,17.66
2018-07-20T06:05:14.470Z,17.77
2018-07-20T06:07:43.574Z,17.87
2018-07-20T06:10:12.624Z,17.97
2018-07-20T06:12:41.479Z,18.06
2018-07-20T06:15:10.553Z,18.16
2018-07-20T06:17:39.489Z,18.23
2018-07-20T06:20:09.371Z,18.32
2018-07-20T06:22:39.139Z,18.47
2018-07-20T06:25:08.446Z,18.56
2018-07-20T06:27:37.665Z,18.71
2018-07-20T06:30:07.082Z,18.83
2018-07-20T06:32:36.260Z,18.92
2018-07-20T06:35:06.092Z,19.02
2018-07-20T06:37:35.216Z,19.11
2018-07-20T06:40:03.978Z,19.20
2018-07-20T06:42:33.347Z,19.31
2018-07-20T06:45:02.153Z,19.41
2018-07-20T06:47:31.190Z,19.51
2018-07-20T06:49:59.957Z,19.65
2018-07-20T06:52:29.152Z,19.65
2018-07-20T06:54:58.485Z,19.73
2018-07-20T06:57:27.881Z,19.79
2018-07-20T06:59:56.715Z,19.86
2018-07-20T07:02:25.488Z,20.03
2018-07-20T07:04:54.551Z,20.14
2018-07-20T07:07:24.016Z,20.20
2018-07-20T07:09:53.065Z,20.28
2018-07-20T07:12:22.210Z,20.30
2018-07-20T07:14:51.848Z,20.46
2018-07-20T07:17:21.058Z,20.66
2018-07-20T07:19:50.320Z,20.81
2018-07-20T07:22:19.066Z,20.93
2018-07-20T07:24:48.174Z,21.11
2018-07-20T07:27:16.960Z,21.26
2018-07-20T07:29:46.020Z,21.39
2018-07-20T07:32:14.996Z,21.46
2018-07-20T07:34:44.078Z,21.59
2018-07-20T07:37:12.846Z,21.56
2018-07-20T07:39:41.801Z,21.72
2018-07-20T07:42:10.617Z,21.91
2018-07-20T07:44:39.405Z,22.09
2018-07-20T07:47:08.798Z,22.15
2018-07-20T07:49:37.542Z,22.31
2018-07-20T07:52:06.808Z,22.49
2018-07-20T07:54:35.643Z,22.63
2018-07-20T07:57:05.010Z,22.75
2018-07-20T07:59:34.329Z,22.86
2018-07-20T08:02:03.383Z,22.96
2018-07-20T08:04:32.147Z,22.91
2018-07-20T08:07:01.178Z,22.87
2018-07-20T08:09:30.568Z,22.95
2018-07-20T08:11:59.643Z,23.01
2018-07-20T08:14:28.416Z,23.15
2018-07-20T08:16:57.197Z,23.25
2018-07-20T08:19:26.813Z,23.40
2018-07-20T08:21:55.554Z,23.49
2018-07-20T08:24:24.621Z,23.57
2018-07-20T08:26:53.452Z,23.77
2018-07-20T08:29:22.248Z,23.79
2018-07-20T08:31:50.979Z,23.89
2018-07-20T08:34:20.099Z,24.01
2018-07-20T08:36:48.916Z,24.05
2018-07-20T08:39:18.116Z,24.12
2018-07-20T08:41:47.014Z,24.20
2018-07-20T08:44:16.046Z,24.18
2018-07-20T08:46:45.675Z,24.20
2018-07-20T08:49:14.415Z,24.28
2018-07-20T08:51:43.176Z,24.30
2018-07-20T08:54:12.004Z,24.43
2018-07-20T08:56:41.547Z,24.58
2018-07-20T08:59:10.551Z,24.72
2018-07-20T09:01:39.844Z,24.88
2018-07-20T09:04:09.683Z,25.00
2018-07-20T09:06:38.463Z,25.04
2018-07-20T09:09:08.369Z,25.17
2018-07-20T09:11:37.128Z,25.28
2018-07-20T09:14:06.132Z,25.44
2018-07-20T09:16:35.272Z,25.46
2018-07-20T09:19:04.407Z,25.47
2018-07-20T09:21:33.756Z,25.55
2018-07-20T09:24:02.810Z,25.75
2018-07-20T09:26:31.842Z,25.96
2018-07-20T09:29:00.656Z,26.16
2018-07-20T09:31:29.379Z,26.39
2018-07-20T09:33:58.491Z,26.48
2018-07-20T09:36:27.587Z,26.45
2018-07-20T09:38:57.179Z,26.17
2018-07-20T09:41:25.928Z,26.33
2018-07-20T09:43:54.677Z,26.49
2018-07-20T09:46:23.787Z,26.73
2018-07-20T09:48:53.145Z,27.01
2018-07-20T09:51:21.871Z,27.22
2018-07-20T09:53:50.850Z,27.48
2018-07-20T09:56:20.186Z,27.49
2018-07-20T09:58:49.192Z,27.65
2018-07-20T10:01:18.258Z,27.71
2018-07-20T10:03:47.312Z,27.82
2018-07-20T10:06:16.114Z,28.03
2018-07-20T10:08:45.530Z,28.14
2018-07-20T10:11:14.260Z,28.29
2018-07-20T10:13:43.364Z,28.36
2018-07-20T10:16:12.126Z,28.53
2018-07-20T10:18:41.162Z,28.76
2018-07-20T10:21:09.964Z,28.71
2018-07-20T10:23:39.293Z,28.80
2018-07-20T10:26:08.706Z,28.93
2018-07-20T10:28:37.467Z,28.98
2018-07-20T10:31:06.214Z,29.11
2018-07-20T10:33:35.273Z,29.01
2018-07-20T10:36:04.017Z,28.90
2018-07-20T10:38:33.137Z,29.06
2018-07-20T10:41:02.226Z,29.10
2018-07-20T10:43:31.004Z,29.06
2018-07-20T10:45:59.772Z,29.19
2018-07-20T10:48:28.731Z,29.40
2018-07-20T10:50:58.106Z,29.55
2018-07-20T10:53:26.860Z,29.78
2018-07-20T10:55:55.673Z,30.01
2018-07-20T10:58:24.417Z,30.26
2018-07-20T11:00:53.220Z,30.44
2018-07-20T11:03:22.364Z,30.62
2018-07-20T11:05:52.075Z,30.80
2018-07-20T11:08:21.422Z,31.04
2018-07-20T11:10:50.501Z,31.23
2018-07-20T11:13:20.333Z,31.18
2018-07-20T11:15:49.330Z,31.20
2018-07-20T11:18:18.326Z,31.13
2018-07-20T11:20:47.187Z,31.27
2018-07-20T11:23:16.219Z,31.42
2018-07-20T11:25:45.251Z,31.46
2018-07-20T11:28:15.407Z,31.73
2018-07-20T11:30:44.399Z,32.03
2018-07-20T11:33:13.673Z,32.22
2018-07-20T11:35:43.163Z,32.46
2018-07-20T11:38:11.968Z,32.62
2018-07-20T11:40:41.086Z,32.59
2018-07-20T11:43:10.445Z,32.57
2018-07-20T11:45:39.636Z,32.54
2018-07-20T11:48:08.861Z,32.80
2018-07-20T11:50:38.214Z,32.96
2018-07-20T11:53:07.095Z,33.12
2018-07-20T11:55:35.921Z,33.22
2018-07-20T11:58:04.931Z,33.07
2018-07-20T12:00:33.979Z,33.02
2018-07-20T12:03:02.975Z,33.16
2018-07-20T12:05:32.476Z,33.36
2018-07-20T12:08:01.506Z,33.47
2018-07-20T12:10:30.384Z,33.25
2018-07-20T12:12:59.378Z,33.46
2018-07-20T12:15:28.607Z,33.77
2018-07-20T12:17:57.790Z,34.03
2018-07-20T12:20:26.956Z,33.99
2018-07-20T12:22:56.290Z,33.98
2018-07-20T12:25:25.316Z,34.22
2018-07-20T12:27:54.127Z,34.44
2018-07-20T12:30:24.098Z,34.61
2018-07-20T12:32:53.151Z,34.70
2018-07-20T12:35:22.730Z,34.79
2018-07-20T12:37:51.769Z,34.80
2018-07-20T12:40:20.888Z,34.78
2018-07-20T12:42:49.701Z,34.63
2018-07-20T12:45:18.832Z,34.49
2018-07-20T12:47:47.538Z,34.58
2018-07-20T12:50:16.597Z,34.83
2018-07-20T12:52:46.327Z,34.99
2018-07-20T12:55:15.301Z,35.47
2018-07-20T12:57:44.097Z,35.97
2018-07-20T13:00:12.837Z,36.23
2018-07-20T13:02:41.946Z,36.01
2018-07-20T13:05:11.095Z,36.11
2018-07-20T13:07:40.454Z,36.04
2018-07-20T13:10:09.475Z,36.02
2018-07-20T13:12:38.869Z,35.95
2018-07-20T13:15:08.144Z,35.59
2018-07-20T13:17:36.936Z,35.69
2018-07-20T13:20:06.492Z,35.95
2018-07-20T13:22:35.815Z,36.11
2018-07-20T13:25:04.918Z,35.81
2018-07-20T13:27:33.955Z,35.56
2018-07-20T13:30:02.685Z,35.40
2018-07-20T13:32:31.849Z,35.39
2018-07-20T13:35:00.797Z,35.69
2018-07-20T13:37:29.867Z,35.96
2018-07-20T13:39:59.589Z,36.04
2018-07-20T13:42:28.366Z,36.07
2018-07-20T13:44:57.779Z,35.88
2018-07-20T13:47:26.572Z,35.79
2018-07-20T13:49:55.635Z,35.90
2018-07-20T13:52:24.926Z,35.89
2018-07-20T13:54:53.670Z,35.87
2018-07-20T13:57:23.109Z,35.99
2018-07-20T13:59:52.097Z,36.11
2018-07-20T14:02:21.420Z,36.17
2018-07-20T14:04:50.437Z,36.23
2018-07-20T14:07:19.153Z,36.38
2018-07-20T14:09:48.116Z,36.50
2018-07-20T14:12:16.933Z,36.40
2018-07-20T14:14:45.915Z,36.44
2018-07-20T14:17:14.973Z,36.36
2018-07-20T14:19:43.846Z,36.50
2018-07-20T14:22:12.841Z,36.42
2018-07-20T14:24:42.114Z,36.44
2018-07-20T14:27:11.974Z,36.12
2018-07-20T14:29:40.922Z,35.77
2018-07-20T14:32:09.727Z,35.46
2018-07-20T14:34:38.471Z,35.15
2018-07-20T14:37:07.798Z,34.76
2018-07-20T14:39:37.215Z,34.74
2018-07-20T14:42:06.683Z,34.95
2018-07-20T14:44:35.789Z,35.09
2018-07-20T14:47:04.918Z,35.21
2018-07-20T14:49:33.633Z,35.52
2018-07-20T14:52:02.739Z,35.76
2018-07-20T14:54:31.791Z,35.76
2018-07-20T14:57:00.560Z,35.73
2018-07-20T14:59:29.851Z,35.78
2018-07-20T15:01:58.953Z,35.73
2018-07-20T15:04:28.023Z,35.67
2018-07-20T15:06:56.983Z,35.74
2018-07-20T15:09:26.031Z,35.82
2018-07-20T15:11:55.574Z,36.01
2018-07-20T15:14:24.636Z,35.96
2018-07-20T15:16:54.042Z,35.68
2018-07-20T15:19:23.474Z,35.56
2018-07-20T15:21:52.979Z,35.31
2018-07-20T15:24:21.678Z,35.25
2018-07-20T15:26:50.833Z,35.27
2018-07-20T15:29:19.587Z,35.01
2018-07-20T15:31:48.382Z,34.97
2018-07-20T15:34:17.147Z,34.95
2018-07-20T15:36:46.219Z,34.89
2018-07-20T15:39:15.705Z,34.76
2018-07-20T15:41:45.098Z,34.19
2018-07-20T15:44:14.155Z,33.93
2018-07-20T15:46:43.267Z,33.89
2018-07-20T15:49:12.253Z,34.00
2018-07-20T15:53:35.206Z,34.00
2018-07-20T15:54:10.057Z,33.75
2018-07-20T15:56:39.161Z,33.75
2018-07-20T15:59:08.501Z,33.31
2018-07-20T16:01:37.750Z,33.06
2018-07-20T16:04:06.879Z,33.08
2018-07-20T16:06:36.165Z,33.01
2018-07-20T16:09:07.089Z,32.96
2018-07-20T16:11:36.114Z,33.00
2018-07-20T16:14:04.887Z,33.04
2018-07-20T16:16:34.204Z,33.14
2018-07-20T16:19:03.498Z,33.22
2018-07-20T16:21:32.775Z,33.21
2018-07-20T16:24:02.083Z,33.10
2018-07-20T16:26:31.148Z,32.88
2018-07-20T16:29:00.149Z,32.54
2018-07-20T16:31:30.282Z,32.56
2018-07-20T16:33:58.962Z,32.75
2018-07-20T16:36:28.030Z,32.95
2018-07-20T16:38:58.137Z,32.95
2018-07-20T16:41:27.186Z,33.03
2018-07-20T16:43:56.254Z,32.61
2018-07-20T16:46:25.411Z,32.46
2018-07-20T16:48:54.134Z,32.43
2018-07-20T16:51:23.146Z,32.37
2018-07-20T16:53:51.895Z,32.17
2018-07-20T16:56:20.973Z,32.07
2018-07-20T16:58:49.687Z,31.79
2018-07-20T17:01:18.443Z,31.51
2018-07-20T17:03:47.602Z,31.26
2018-07-20T17:06:16.947Z,31.10
2018-07-20T17:08:45.717Z,30.99
2018-07-20T17:11:14.978Z,30.91
2018-07-20T17:13:43.722Z,30.80
2018-07-20T17:16:12.695Z,30.77
2018-07-20T17:18:41.900Z,30.85
2018-07-20T17:21:11.133Z,30.94
2018-07-20T17:23:40.750Z,30.88
2018-07-20T17:26:09.714Z,30.84
2018-07-20T17:28:38.455Z,30.76
2018-07-20T17:31:07.662Z,30.74
2018-07-20T17:33:36.452Z,30.82
2018-07-20T17:36:05.191Z,30.91
2018-07-20T17:38:34.842Z,30.96
2018-07-20T17:41:03.645Z,30.98
2018-07-20T17:43:33.094Z,30.99
2018-07-20T17:46:02.321Z,31.03
2018-07-20T17:48:31.402Z,30.95
2018-07-20T17:51:00.851Z,30.86
2018-07-20T17:53:29.542Z,30.54
2018-07-20T17:55:58.498Z,30.33
2018-07-20T17:58:27.489Z,30.16
2018-07-20T18:00:56.482Z,29.97
2018-07-20T18:03:25.896Z,29.89
2018-07-20T18:05:54.748Z,29.80
2018-07-20T18:08:23.583Z,29.71
2018-07-20T18:10:53.410Z,29.63
2018-07-20T18:13:22.387Z,29.38
2018-07-20T18:15:51.243Z,29.22
2018-07-20T18:18:20.021Z,29.07
2018-07-20T18:20:48.723Z,28.97
2018-07-20T18:23:17.855Z,28.65
2018-07-20T18:25:46.989Z,28.48
2018-07-20T18:28:15.989Z,28.31
2018-07-20T18:30:44.997Z,28.01
2018-07-20T18:33:14.059Z,27.84
2018-07-20T18:35:42.816Z,27.45
2018-07-20T18:38:11.602Z,27.28
2018-07-20T18:40:40.605Z,27.28
2018-07-20T18:43:09.875Z,27.24
2018-07-20T18:45:38.975Z,26.89
2018-07-20T18:48:08.389Z,26.68
2018-07-20T18:50:38.013Z,26.61
2018-07-20T18:53:07.423Z,26.53
2018-07-20T18:55:36.555Z,26.48
2018-07-20T18:58:05.620Z,26.29
2018-07-20T19:00:34.355Z,26.11
2018-07-20T19:03:03.123Z,26.05
2018-07-20T19:05:31.909Z,26.01
2018-07-20T19:08:00.846Z,25.91
2018-07-20T19:10:30.258Z,25.77
2018-07-20T19:12:59.361Z,25.77
2018-07-20T19:15:28.442Z,25.77
2018-07-20T19:17:57.529Z,25.63
2018-07-20T19:20:26.285Z,25.44
2018-07-20T19:22:55.299Z,25.32
2018-07-20T19:25:24.109Z,25.26
2018-07-20T19:27:53.198Z,25.13
2018-07-20T19:30:21.929Z,24.95
2018-07-20T19:32:51.047Z,24.85
2018-07-20T19:35:20.080Z,24.89
2018-07-20T19:37:49.318Z,24.86
2018-07-20T19:40:18.409Z,24.79
2018-07-20T19:42:47.153Z,24.67
2018-07-20T19:45:16.510Z,24.59
2018-07-20T19:47:45.565Z,24.57
2018-07-20T19:50:14.299Z,24.39
2018-07-20T19:52:43.110Z,24.29
2018-07-20T19:55:12.439Z,24.30
2018-07-20T19:57:41.529Z,24.28
2018-07-20T20:00:11.086Z,24.25
2018-07-20T20:02:39.808Z,24.17
2018-07-20T20:05:08.896Z,24.08
2018-07-20T20:07:37.943Z,24.05
2018-07-20T20:10:08.088Z,24.00
2018-07-20T20:12:36.836Z,23.94
2018-07-20T20:15:05.920Z,23.81
2018-07-20T20:17:34.707Z,23.60
2018-07-20T20:20:03.782Z,23.43
2018-07-20T20:22:32.612Z,23.34
2018-07-20T20:25:01.727Z,23.25
2018-07-20T20:27:30.559Z,23.14
2018-07-20T20:29:59.299Z,23.06
2018-07-20T20:32:28.122Z,22.94
2018-07-20T20:34:57.034Z,22.88
2018-07-20T20:37:26.364Z,22.82
2018-07-20T20:39:55.672Z,22.70
2018-07-20T20:42:24.397Z,22.64
2018-07-20T20:44:54.379Z,22.57
2018-07-20T20:47:24.061Z,22.52
2018-07-20T20:49:52.881Z,22.45
2018-07-20T20:52:22.197Z,22.38
2018-07-20T20:54:51.159Z,22.36
2018-07-20T20:57:20.230Z,22.19
2018-07-20T20:59:49.028Z,22.19
2018-07-20T21:02:18.205Z,22.09
2018-07-20T21:04:47.054Z,21.98
2018-07-20T21:07:16.179Z,21.93
2018-07-20T21:09:45.777Z,21.87
2018-07-20T21:12:14.871Z,21.88
2018-07-20T21:14:43.958Z,21.85
2018-07-20T21:17:13.031Z,21.79
2018-07-20T21:19:41.749Z,21.74
2018-07-20T21:22:12.525Z,21.72
2018-07-20T21:24:42.377Z,21.73
2018-07-20T21:27:11.114Z,21.68
2018-07-20T21:29:40.069Z,21.62
2018-07-20T21:32:09.185Z,21.60
2018-07-20T21:34:38.221Z,21.55
2018-07-20T21:37:06.998Z,21.51
2018-07-20T21:39:36.082Z,21.44
2018-07-20T21:42:05.074Z,21.41
2018-07-20T21:44:34.212Z,21.39
2018-07-20T21:47:02.946Z,21.35
2018-07-20T21:49:31.702Z,21.30
2018-07-20T21:52:01.556Z,21.19
2018-07-20T21:54:30.266Z,21.14
2018-07-20T21:56:59.076Z,21.09
2018-07-20T21:59:28.137Z,21.05
2018-07-20T22:01:57.550Z,21.01
2018-07-20T22:04:26.302Z,20.97
2018-07-20T22:06:55.542Z,20.91
2018-07-20T22:09:24.630Z,20.89
2018-07-20T22:11:53.387Z,20.82
2018-07-20T22:14:22.591Z,20.79
2018-07-20T22:16:51.425Z,20.74
2018-07-20T22:19:20.631Z,20.71
2018-07-20T22:21:49.936Z,20.66
2018-07-20T22:24:18.704Z,20.61
2018-07-20T22:26:47.593Z,20.59
2018-07-20T22:29:16.359Z,20.57
2018-07-20T22:31:45.674Z,20.57
2018-07-20T22:34:14.413Z,20.55
2018-07-20T22:36:43.721Z,20.52
2018-07-20T22:39:13.809Z,20.53
2018-07-20T22:41:43.239Z,20.50
2018-07-20T22:44:12.229Z,20.47
2018-07-20T22:46:41.017Z,20.48
2018-07-20T22:49:10.006Z,20.48
2018-07-20T22:51:38.848Z,20.46
2018-07-20T22:54:07.845Z,20.45
2018-07-20T22:56:36.965Z,20.42
2018-07-20T22:59:06.302Z,20.39
2018-07-20T23:01:35.347Z,20.38
2018-07-20T23:04:04.731Z,20.39
2018-07-20T23:06:33.526Z,20.38
2018-07-20T23:09:02.289Z,20.36
2018-07-20T23:11:31.435Z,20.37
2018-07-20T23:14:00.513Z,20.35
2018-07-20T23:16:29.329Z,20.37
2018-07-20T23:18:58.183Z,20.38
2018-07-20T23:21:27.548Z,20.30
2018-07-20T23:23:56.598Z,20.22
2018-07-20T23:26:25.941Z,20.21
2018-07-20T23:28:55.213Z,20.18
2018-07-20T23:31:24.707Z,20.19
2018-07-20T23:33:54.296Z,20.21
2018-07-20T23:36:23.253Z,20.16
2018-07-20T23:38:52.071Z,20.14
2018-07-20T23:41:21.394Z,20.16
2018-07-20T23:43:50.732Z,20.17
2018-07-20T23:46:20.164Z,20.17
2018-07-20T23:48:49.131Z,20.16
2018-07-20T23:51:18.562Z,20.16
2018-07-20T23:53:47.312Z,20.12
2018-07-20T23:56:16.275Z,20.11
2018-07-20T23:58:47.142Z,20.13
